Time;durP1;ratioP1;P1;durP2;ratioP2;P2;SDS_P1;SDS_P2;PMS_P1;PMS_P2;Temp;Humidity;BMP_temperature;BMP_pressure;BME280_temperature;BME280_humidity;BME280_pressure;Samples;Min_cycle;Max_cycle;Signal;HPM_P1;HPM_P2
2021/01/06 00:02:46;;;;;;;6.30;4.53;;;3.50;98.30;;;;;;5089682;23;20244;-83
2021/01/06 00:04:48;;;;;;;8.52;4.22;;;3.50;98.30;;;;;;5098342;23;20199;-82
2021/01/06 00:06:50;;;;;;;6.60;4.20;;;3.40;98.30;;;;;;5098979;23;20204;-83
2021/01/06 00:08:52;;;;;;;6.15;5.53;;;3.40;98.30;;;;;;5098636;23;20770;-83
2021/01/06 00:10:57;;;;;;;6.28;4.43;;;3.40;98.30;;;;;;5098998;23;20204;-83
2021/01/06 00:13:00;;;;;;;6.30;3.70;;;3.40;98.30;;;;;;5099027;23;20687;-83
2021/01/06 00:15:02;;;;;;;4.68;3.63;;;3.40;98.30;;;;;;5091358;23;20278;-84
2021/01/06 00:17:04;;;;;;;6.97;4.10;;;3.40;98.30;;;;;;5098629;23;20714;-83
2021/01/06 00:19:07;;;;;;;5.22;3.83;;;3.40;98.30;;;;;;5099041;23;20204;-83
2021/01/06 00:21:11;;;;;;;6.10;4.30;;;3.40;98.30;;;;;;5099384;23;20278;-83
2021/01/06 00:23:13;;;;;;;6.18;4.75;;;3.40;98.30;;;;;;5091216;23;20226;-83
2021/01/06 00:25:18;;;;;;;5.78;3.65;;;3.40;98.30;;;;;;5099364;23;20208;-82
2021/01/06 00:27:20;;;;;;;7.03;4.93;;;3.40;98.30;;;;;;5099674;23;20529;-83
2021/01/06 00:29:22;;;;;;;8.30;4.78;;;3.40;98.30;;;;;;5098980;23;20307;-83
2021/01/06 00:31:24;;;;;;;6.28;4.25;;;3.40;98.30;;;;;;5099268;23;20261;-84
2021/01/06 00:33:29;;;;;;;5.03;4.00;;;3.40;98.30;;;;;;5099517;23;20207;-82
2021/01/06 00:35:31;;;;;;;5.15;3.80;;;3.40;98.30;;;;;;5099788;23;20314;-83
2021/01/06 00:37:34;;;;;;;6.00;3.95;;;3.40;98.30;;;;;;5099245;23;20199;-83
2021/01/06 00:39:36;;;;;;;7.78;4.35;;;3.40;98.30;;;;;;5099354;23;20287;-83
2021/01/06 00:41:38;;;;;;;4.80;3.85;;;3.40;98.30;;;;;;5100184;23;20230;-82
2021/01/06 00:43:40;;;;;;;5.50;4.10;;;3.40;98.30;;;;;;5099353;23;20298;-82
2021/01/06 00:45:45;;;;;;;5.45;4.07;;;3.40;98.30;;;;;;5100564;23;20609;-83
2021/01/06 00:47:47;;;;;;;7.53;3.78;;;3.30;98.30;;;;;;5101116;23;20588;-82
2021/01/06 00:49:49;;;;;;;5.07;3.97;;;3.30;98.30;;;;;;5099992;23;20697;-82
2021/01/06 00:51:51;;;;;;;6.07;4.18;;;3.30;98.30;;;;;;5099272;23;20217;-83
2021/01/06 00:53:55;;;;;;;5.80;4.50;;;3.30;98.30;;;;;;5100033;23;20286;-83
2021/01/06 00:55:58;;;;;;;5.82;4.40;;;3.30;98.30;;;;;;5091557;23;20290;-83
2021/01/06 00:58:00;;;;;;;6.40;4.22;;;3.40;98.30;;;;;;5091229;23;20211;-83
2021/01/06 01:00:04;;;;;;;6.55;4.30;;;3.30;98.30;;;;;;5099007;23;20204;-83
2021/01/06 01:02:06;;;;;;;9.57;4.38;;;3.40;98.30;;;;;;5098841;23;20217;-83
2021/01/06 01:04:08;;;;;;;7.90;3.92;;;3.40;98.30;;;;;;5090976;23;20233;-83
2021/01/06 01:06:10;;;;;;;5.40;3.60;;;3.40;98.30;;;;;;5100593;23;20207;-84
2021/01/06 01:08:12;;;;;;;4.82;3.80;;;3.40;98.30;;;;;;5101435;23;20526;-83
2021/01/06 01:10:28;;;;;;;5.07;3.60;;;3.30;98.30;;;;;;5100751;23;20203;-84
2021/01/06 01:12:31;;;;;;;4.30;3.60;;;3.40;98.30;;;;;;5100352;23;20291;-84
2021/01/06 01:14:33;;;;;;;7.20;4.03;;;3.40;98.30;;;;;;5101461;23;20547;-83
2021/01/06 01:16:42;;;;;;;5.70;4.00;;;3.40;98.30;;;;;;5100606;23;20226;-83
2021/01/06 01:18:43;;;;;;;6.75;4.60;;;3.40;98.30;;;;;;5101594;23;20207;-83
2021/01/06 01:20:47;;;;;;;6.40;3.72;;;3.40;98.30;;;;;;5102083;23;20306;-84
2021/01/06 01:22:50;;;;;;;7.32;3.90;;;3.40;98.30;;;;;;5104017;23;20210;-84
2021/01/06 01:24:52;;;;;;;7.55;3.85;;;3.40;98.30;;;;;;5105106;23;20203;-84
2021/01/06 01:26:55;;;;;;;5.25;3.85;;;3.30;98.30;;;;;;5103756;23;20207;-83
2021/01/06 01:28:57;;;;;;;5.90;3.70;;;3.40;98.30;;;;;;5103921;23;20286;-83
2021/01/06 01:30:59;;;;;;;5.63;3.63;;;3.30;98.30;;;;;;5103432;23;20207;-83
2021/01/06 01:33:01;;;;;;;4.78;4.03;;;3.30;98.30;;;;;;5105320;23;20208;-84
2021/01/06 01:35:05;;;;;;;5.57;3.95;;;3.30;98.30;;;;;;5104406;23;20219;-83
2021/01/06 01:37:07;;;;;;;5.63;3.97;;;3.20;98.30;;;;;;5105006;23;20203;-83
2021/01/06 01:39:09;;;;;;;5.88;4.00;;;3.20;98.30;;;;;;5101456;23;20278;-83
2021/01/06 01:41:13;;;;;;;5.90;3.95;;;3.20;98.30;;;;;;5100425;23;20207;-84
2021/01/06 01:43:18;;;;;;;5.00;3.65;;;3.20;98.30;;;;;;5102342;23;20722;-84
2021/01/06 01:45:39;;;;;;;5.28;4.13;;;3.30;98.30;;;;;;5099194;23;20262;-84
2021/01/06 01:47:50;;;;;;;5.10;3.38;;;3.20;98.30;;;;;;5100013;23;20199;-84
2021/01/06 01:49:52;;;;;;;5.78;4.00;;;3.20;98.30;;;;;;5100392;23;20206;-84
2021/01/06 01:52:00;;;;;;;7.50;3.85;;;3.30;98.30;;;;;;5099384;23;20203;-84
2021/01/06 01:54:04;;;;;;;4.82;3.50;;;3.30;98.30;;;;;;5100509;23;20650;-83
2021/01/06 01:56:10;;;;;;;5.95;4.30;;;3.30;98.30;;;;;;5099694;23;20227;-84
2021/01/06 01:58:19;;;;;;;5.75;3.80;;;3.30;98.30;;;;;;5100211;23;20214;-84
2021/01/06 02:00:24;;;;;;;7.97;4.38;;;3.30;98.30;;;;;;5102232;23;20290;-84
2021/01/06 02:02:34;;;;;;;5.15;3.55;;;3.30;98.30;;;;;;5100731;23;20210;-84
2021/01/06 02:43:58;;;;;;;5.65;4.55;;;3.50;98.30;;;;;;5017930;23;20209;-81
2021/01/06 03:14:04;;;;;;;6.35;4.97;;;3.40;98.30;;;;;;5041773;23;20185;-81
2021/01/06 03:33:47;;;;;;;8.88;5.18;;;3.30;98.30;;;;;;4772374;24;20193;-81
2021/01/06 04:31:01;;;;;;;7.60;4.90;;;3.20;98.30;;;;;;5030773;23;20203;-80
2021/01/06 04:33:13;;;;;;;6.82;4.90;;;3.20;98.30;;;;;;5089860;23;20225;-80
2021/01/06 04:35:37;;;;;;;5.85;5.25;;;3.20;98.30;;;;;;5114227;23;20685;-81
2021/01/06 04:38:53;;;;;;;11.57;5.75;;;3.20;98.30;;;;;;5110540;23;20207;-81
2021/01/06 04:45:24;;;;;;;8.52;5.40;;;3.30;98.30;;;;;;5116407;23;20206;-80
2021/01/06 04:48:30;;;;;;;7.25;5.10;;;3.30;98.30;;;;;;5117351;23;20250;-81
2021/01/06 04:51:39;;;;;;;6.00;5.13;;;3.30;98.30;;;;;;5078673;23;20213;-81
2021/01/06 04:54:38;;;;;;;8.05;5.65;;;3.30;98.30;;;;;;5125428;23;20218;-81
2021/01/06 04:57:10;;;;;;;7.72;5.40;;;3.30;98.30;;;;;;5017014;23;20205;-81
2021/01/06 04:59:22;;;;;;;8.25;6.03;;;3.30;98.30;;;;;;5092366;23;20207;-81
2021/01/06 05:01:40;;;;;;;7.18;6.03;;;3.30;98.30;;;;;;5126759;23;20531;-81
2021/01/06 05:03:58;;;;;;;8.55;5.50;;;3.30;98.30;;;;;;5125782;23;20210;-81
2021/01/06 05:06:13;;;;;;;7.20;5.32;;;3.30;98.30;;;;;;5125953;23;20198;-81
2021/01/06 05:08:23;;;;;;;7.72;5.28;;;3.30;98.30;;;;;;5125273;23;20199;-81
2021/01/06 05:10:32;;;;;;;6.50;5.55;;;3.30;98.30;;;;;;5125553;23;20206;-81
2021/01/06 05:12:39;;;;;;;8.47;5.37;;;3.40;98.30;;;;;;5125354;23;20198;-81
2021/01/06 05:14:50;;;;;;;8.60;5.78;;;3.30;98.30;;;;;;5126029;23;20504;-84
2021/01/06 05:16:53;;;;;;;7.40;5.47;;;3.30;98.30;;;;;;5125974;23;20202;-82
2021/01/06 05:18:56;;;;;;;10.48;6.65;;;3.30;98.30;;;;;;5117196;23;20269;-82
2021/01/06 05:20:58;;;;;;;13.55;8.15;;;3.40;98.30;;;;;;5125289;23;20202;-82
2021/01/06 05:23:02;;;;;;;8.45;5.88;;;3.40;98.30;;;;;;5124433;23;20230;-82
2021/01/06 05:25:05;;;;;;;18.43;10.00;;;3.30;98.30;;;;;;5125063;23;20260;-82
2021/01/06 05:27:22;;;;;;;55.90;25.55;;;3.70;98.30;;;;;;5126339;23;20450;-82
2021/01/06 05:29:28;;;;;;;45.17;23.00;;;4.00;98.30;;;;;;5125087;23;20229;-82
2021/01/06 05:31:30;;;;;;;13.27;9.45;;;4.20;98.30;;;;;;5125173;23;20199;-82
2021/01/06 05:33:35;;;;;;;7.45;5.47;;;4.20;98.30;;;;;;5126723;23;20203;-82
2021/01/06 05:35:44;;;;;;;9.03;6.67;;;4.00;98.30;;;;;;5127270;23;20211;-82
2021/01/06 05:37:50;;;;;;;11.07;6.68;;;3.80;98.30;;;;;;5126820;23;20453;-82
2021/01/06 05:40:05;;;;;;;9.23;5.70;;;3.70;98.30;;;;;;5125343;23;20203;-82
2021/01/06 05:42:13;;;;;;;67.05;33.78;;;3.70;98.30;;;;;;5126219;23;20965;-82
2021/01/06 05:44:16;;;;;;;54.97;28.25;;;3.90;98.30;;;;;;5126152;23;20211;-82
2021/01/06 05:46:25;;;;;;;47.97;29.40;;;4.10;98.30;;;;;;5117794;23;20211;-81
2021/01/06 05:48:37;;;;;;;15.48;9.15;;;4.10;98.30;;;;;;5126667;23;20202;-82
2021/01/06 05:50:41;;;;;;;12.10;6.80;;;4.00;98.30;;;;;;5126791;23;20203;-81
2021/01/06 05:52:45;;;;;;;10.18;5.72;;;3.80;98.30;;;;;;5126944;23;20214;-81
2021/01/06 05:54:50;;;;;;;10.35;6.05;;;3.70;98.30;;;;;;5125993;23;20774;-82
2021/01/06 05:57:09;;;;;;;19.55;10.43;;;3.70;98.30;;;;;;5125956;23;20266;-81
2021/01/06 05:59:30;;;;;;;50.83;24.02;;;3.60;98.30;;;;;;5125555;23;20207;-81
2021/01/06 06:02:24;;;;;;;44.28;21.00;;;3.90;98.30;;;;;;5118214;23;20592;-82
2021/01/06 06:05:18;;;;;;;15.87;9.00;;;4.20;98.30;;;;;;5104082;23;20208;-82
2021/01/06 06:07:34;;;;;;;7.70;5.82;;;4.10;98.30;;;;;;5127467;23;20496;-82
2021/01/06 06:10:18;;;;;;;7.30;5.10;;;3.80;98.30;;;;;;5127739;23;20657;-82
2021/01/06 06:12:49;;;;;;;9.00;5.78;;;3.70;98.30;;;;;;5075089;23;20451;-82
2021/01/06 06:15:15;;;;;;;9.17;6.43;;;3.60;98.30;;;;;;5098882;23;20670;-82
2021/01/06 06:17:28;;;;;;;8.88;6.05;;;3.50;98.30;;;;;;5126885;23;20449;-81
2021/01/06 06:19:54;;;;;;;8.05;6.07;;;3.40;98.30;;;;;;5133344;23;20210;-80
2021/01/06 06:22:07;;;;;;;9.45;5.70;;;3.30;98.30;;;;;;5129195;23;20217;-82
2021/01/06 06:24:31;;;;;;;70.05;42.88;;;3.30;98.30;;;;;;5131973;23;20211;-82
2021/01/06 06:26:47;;;;;;;23.27;14.20;;;3.30;98.30;;;;;;5130636;23;20206;-81
2021/01/06 06:29:01;;;;;;;112.38;62.13;;;3.30;98.30;;;;;;5139060;23;20196;-82
2021/01/06 06:31:20;;;;;;;20.13;11.68;;;3.30;98.30;;;;;;5138123;23;20215;-82
2021/01/06 06:33:31;;;;;;;8.43;6.35;;;3.20;98.30;;;;;;5133277;23;20231;-82
2021/01/06 06:36:00;;;;;;;7.93;5.85;;;3.20;98.30;;;;;;5127951;23;20233;-80
2021/01/06 06:38:05;;;;;;;7.57;5.43;;;3.10;98.30;;;;;;5115776;23;20206;-82
2021/01/06 06:40:10;;;;;;;10.30;6.13;;;3.00;98.30;;;;;;5125332;23;20638;-82
2021/01/06 06:42:19;;;;;;;7.18;5.90;;;3.00;98.30;;;;;;5126127;23;20573;-81
2021/01/06 06:44:28;;;;;;;10.82;6.82;;;3.00;98.30;;;;;;5126298;23;20795;-81
2021/01/06 06:46:34;;;;;;;9.90;5.65;;;3.00;98.30;;;;;;5126705;23;20305;-82
2021/01/06 06:48:41;;;;;;;13.35;6.30;;;3.00;98.30;;;;;;5119515;23;20740;-82
2021/01/06 06:50:54;;;;;;;8.10;5.60;;;3.10;98.30;;;;;;5126541;23;20230;-82
2021/01/06 06:53:12;;;;;;;9.77;5.78;;;3.00;98.30;;;;;;5127844;23;20931;-82
2021/01/06 06:55:37;;;;;;;8.23;6.05;;;3.10;98.30;;;;;;5126269;23;20199;-81
2021/01/06 06:57:44;;;;;;;11.40;6.88;;;3.10;98.30;;;;;;5119407;23;20209;-82
2021/01/06 06:59:54;;;;;;;10.90;6.80;;;3.10;98.30;;;;;;5127520;23;20297;-81
2021/01/06 07:02:01;;;;;;;7.95;6.40;;;3.00;98.30;;;;;;5126757;23;20781;-81
2021/01/06 07:04:14;;;;;;;7.25;5.63;;;3.00;98.30;;;;;;5128215;23;20670;-82
2021/01/06 07:06:16;;;;;;;11.82;6.40;;;3.00;98.30;;;;;;5130191;23;20658;-82
2021/01/06 07:08:24;;;;;;;9.98;5.80;;;3.10;98.30;;;;;;5130548;23;20198;-82
2021/01/06 07:10:29;;;;;;;9.40;6.05;;;3.20;98.30;;;;;;5130758;23;20206;-82
2021/01/06 07:12:39;;;;;;;12.18;6.30;;;3.10;98.30;;;;;;5129618;23;20321;-82
2021/01/06 07:14:51;;;;;;;7.85;6.07;;;3.20;98.30;;;;;;5127509;23;20257;-80
2021/01/06 07:17:03;;;;;;;7.55;5.55;;;3.10;98.30;;;;;;5119965;23;20262;-82
2021/01/06 07:19:23;;;;;;;9.27;6.88;;;3.10;98.30;;;;;;5126864;23;20206;-82
2021/01/06 07:21:33;;;;;;;10.38;6.35;;;3.10;98.30;;;;;;5126807;23;20237;-81
2021/01/06 07:23:39;;;;;;;10.57;7.03;;;3.10;98.30;;;;;;5127025;23;20202;-81
2021/01/06 07:25:42;;;;;;;10.85;6.80;;;3.00;98.30;;;;;;5127230;23;20260;-81
2021/01/06 07:27:46;;;;;;;9.65;6.35;;;3.00;98.30;;;;;;5126869;23;20724;-82
2021/01/06 07:29:50;;;;;;;8.30;5.65;;;3.10;98.30;;;;;;5119378;23;20267;-81
2021/01/06 07:31:59;;;;;;;12.23;5.95;;;3.20;98.30;;;;;;5120413;23;20206;-82
2021/01/06 07:34:05;;;;;;;8.07;6.25;;;3.20;98.30;;;;;;5128194;23;20608;-81
2021/01/06 07:36:12;;;;;;;10.52;6.97;;;3.20;98.30;;;;;;5122057;23;20796;-82
2021/01/06 07:38:20;;;;;;;15.55;7.00;;;3.10;98.30;;;;;;5128170;23;20206;-82
2021/01/06 07:40:27;;;;;;;8.70;6.20;;;3.10;98.30;;;;;;5127916;23;20202;-81
2021/01/06 07:42:34;;;;;;;7.25;6.38;;;3.10;98.30;;;;;;5118659;23;20330;-81
2021/01/06 07:44:40;;;;;;;8.88;6.25;;;3.10;98.30;;;;;;5127646;23;20263;-82
2021/01/06 07:46:54;;;;;;;9.23;7.13;;;3.20;98.30;;;;;;5126945;23;20296;-81
2021/01/06 07:49:19;;;;;;;10.60;6.55;;;3.10;98.30;;;;;;5127070;23;20261;-82
2021/01/06 07:51:35;;;;;;;8.60;5.63;;;3.10;98.30;;;;;;5127632;23;20199;-81
2021/01/06 07:53:44;;;;;;;11.60;7.50;;;3.10;98.30;;;;;;5127086;23;20208;-81
2021/01/06 07:56:02;;;;;;;8.30;6.03;;;3.10;98.30;;;;;;5127483;23;20285;-81
2021/01/06 07:58:11;;;;;;;7.65;6.25;;;3.10;98.30;;;;;;5125170;23;20273;-81
2021/01/06 08:00:17;;;;;;;8.20;6.85;;;3.10;98.30;;;;;;5116530;23;20260;-81
2021/01/06 08:02:35;;;;;;;13.50;8.00;;;3.10;98.30;;;;;;5124610;23;20261;-81
2021/01/06 08:04:41;;;;;;;8.85;5.55;;;3.10;98.30;;;;;;5125637;23;20253;-81
2021/01/06 08:06:52;;;;;;;9.05;6.57;;;3.00;98.30;;;;;;5125933;23;20202;-81
2021/01/06 08:08:56;;;;;;;9.50;6.22;;;2.90;98.30;;;;;;5117167;23;20722;-81
2021/01/06 08:11:06;;;;;;;9.63;7.05;;;2.90;98.30;;;;;;5125457;23;20225;-81
2021/01/06 08:13:14;;;;;;;9.40;6.50;;;2.90;98.30;;;;;;5125719;23;20277;-83
2021/01/06 08:15:22;;;;;;;7.93;6.05;;;2.90;98.30;;;;;;5126762;23;20206;-83
2021/01/06 08:17:40;;;;;;;11.10;7.18;;;2.90;98.30;;;;;;5111054;23;20238;-81
2021/01/06 08:19:51;;;;;;;8.77;6.70;;;2.90;98.30;;;;;;5111607;23;20206;-82
2021/01/06 08:22:01;;;;;;;10.80;8.15;;;2.90;98.30;;;;;;5125530;23;20202;-81
2021/01/06 08:24:12;;;;;;;9.65;6.53;;;2.90;98.30;;;;;;5126418;23;20202;-82
2021/01/06 08:26:24;;;;;;;10.20;6.55;;;3.00;98.30;;;;;;5126322;23;20198;-83
2021/01/06 08:28:29;;;;;;;8.57;6.40;;;3.00;98.30;;;;;;5125377;23;20541;-82
2021/01/06 08:30:31;;;;;;;9.27;6.68;;;2.90;98.30;;;;;;5125942;23;20536;-82
2021/01/06 08:32:33;;;;;;;6.30;5.70;;;2.90;98.30;;;;;;5126347;23;20289;-82
2021/01/06 08:34:54;;;;;;;7.03;6.18;;;2.90;98.30;;;;;;5118149;23;20213;-82
2021/01/06 08:37:03;;;;;;;10.20;6.82;;;2.90;98.30;;;;;;5117284;23;20210;-82
2021/01/06 08:39:08;;;;;;;9.75;6.10;;;2.90;98.30;;;;;;5119323;23;20241;-81
2021/01/06 08:41:23;;;;;;;12.70;7.05;;;2.90;98.30;;;;;;5127462;23;20207;-81
2021/01/06 08:43:36;;;;;;;9.60;5.85;;;2.90;98.30;;;;;;5127082;23;20206;-81
2021/01/06 08:45:41;;;;;;;8.70;5.80;;;2.90;98.30;;;;;;5120381;23;20258;-81
2021/01/06 08:47:43;;;;;;;9.50;6.65;;;2.90;98.30;;;;;;5127559;23;20905;-81
2021/01/06 08:49:45;;;;;;;10.07;7.25;;;2.90;98.30;;;;;;5128181;23;20202;-81
2021/01/06 08:51:47;;;;;;;8.32;6.15;;;2.90;98.30;;;;;;5127458;23;20199;-81
2021/01/06 08:53:50;;;;;;;10.23;6.65;;;2.90;98.30;;;;;;5126682;23;20203;-81
2021/01/06 08:55:55;;;;;;;11.52;6.97;;;2.90;98.30;;;;;;5126744;23;20688;-81
2021/01/06 08:58:01;;;;;;;11.35;5.80;;;2.90;98.30;;;;;;5126459;23;20206;-81
2021/01/06 09:00:26;;;;;;;10.07;6.93;;;2.90;98.30;;;;;;5119116;23;20966;-81
2021/01/06 09:02:41;;;;;;;10.90;6.35;;;2.90;98.30;;;;;;5126485;23;20211;-81
2021/01/06 09:04:46;;;;;;;9.50;6.95;;;2.90;98.30;;;;;;5127704;23;20505;-81
2021/01/06 09:06:53;;;;;;;11.45;7.15;;;3.00;98.30;;;;;;5124306;23;20198;-82
2021/01/06 09:09:00;;;;;;;9.75;6.40;;;2.90;98.30;;;;;;5124948;23;20203;-82
2021/01/06 09:11:16;;;;;;;7.47;5.57;;;3.00;98.30;;;;;;5128360;23;20198;-81
2021/01/06 09:13:22;;;;;;;9.30;6.00;;;3.00;98.30;;;;;;5125881;23;20205;-81
2021/01/06 09:15:36;;;;;;;8.95;6.53;;;3.00;98.30;;;;;;5126800;23;20589;-82
2021/01/06 09:17:45;;;;;;;8.95;6.95;;;3.10;98.30;;;;;;5127597;23;20194;-81
2021/01/06 09:19:53;;;;;;;7.93;6.03;;;3.10;98.30;;;;;;5117904;23;20209;-80
2021/01/06 09:21:56;;;;;;;7.38;5.65;;;3.10;98.30;;;;;;5124613;23;20225;-79
2021/01/06 09:24:05;;;;;;;8.05;6.65;;;3.10;98.30;;;;;;5125444;23;20198;-80
2021/01/06 09:26:10;;;;;;;8.20;6.20;;;3.10;98.30;;;;;;5125064;23;20215;-80
2021/01/06 09:28:14;;;;;;;7.90;5.72;;;3.20;98.30;;;;;;5116681;23;20206;-80
2021/01/06 09:30:23;;;;;;;7.30;5.40;;;3.20;98.30;;;;;;5124100;23;20218;-80
2021/01/06 09:32:31;;;;;;;8.88;6.10;;;3.20;98.30;;;;;;5125408;23;20476;-80
2021/01/06 09:34:40;;;;;;;7.85;5.68;;;3.20;98.30;;;;;;5124285;23;20545;-81
2021/01/06 09:36:43;;;;;;;6.78;5.53;;;3.20;98.30;;;;;;5124998;23;20206;-80
2021/01/06 09:38:49;;;;;;;8.00;5.72;;;3.20;98.30;;;;;;5125210;23;20206;-80
2021/01/06 09:40:55;;;;;;;8.98;5.93;;;3.20;98.30;;;;;;5125117;23;20285;-80
2021/01/06 09:42:59;;;;;;;7.17;5.53;;;3.20;98.30;;;;;;5124872;23;20237;-79
2021/01/06 09:45:02;;;;;;;5.80;4.60;;;3.20;98.30;;;;;;5125074;23;21000;-81
2021/01/06 09:47:10;;;;;;;8.87;5.40;;;3.20;98.30;;;;;;5124898;23;20504;-81
2021/01/06 09:49:17;;;;;;;6.78;5.22;;;3.20;98.30;;;;;;5125059;23;20487;-81
2021/01/06 09:51:21;;;;;;;41.55;21.33;;;3.30;98.30;;;;;;5125983;23;20208;-80
2021/01/06 09:53:28;;;;;;;129.43;58.03;;;3.40;98.30;;;;;;5124918;23;20199;-80
2021/01/06 09:55:30;;;;;;;48.15;24.98;;;3.40;98.30;;;;;;5125101;23;20449;-80
2021/01/06 09:57:33;;;;;;;12.13;7.93;;;3.50;98.30;;;;;;5117372;23;20210;-79
2021/01/06 09:59:37;;;;;;;9.52;6.53;;;3.40;98.30;;;;;;5125724;23;20205;-80
2021/01/06 10:01:53;;;;;;;8.73;6.10;;;3.30;98.30;;;;;;5124828;23;20217;-80
2021/01/06 10:04:02;;;;;;;8.45;6.18;;;3.30;98.30;;;;;;5124575;23;20199;-80
2021/01/06 10:06:15;;;;;;;10.73;6.13;;;3.30;98.30;;;;;;5124882;23;20276;-80
2021/01/06 10:08:28;;;;;;;6.60;5.57;;;3.30;98.30;;;;;;5130735;23;20234;-80
2021/01/06 10:10:36;;;;;;;6.88;5.63;;;3.30;98.30;;;;;;5133634;23;20291;-80
2021/01/06 10:12:55;;;;;;;7.13;6.00;;;3.40;98.30;;;;;;5125283;23;20205;-80
2021/01/06 10:15:33;;;;;;;6.47;5.18;;;3.40;98.30;;;;;;5134435;23;20211;-80
2021/01/06 10:17:41;;;;;;;6.35;5.75;;;3.30;98.30;;;;;;5127575;23;20202;-80
2021/01/06 10:19:51;;;;;;;7.60;5.75;;;3.40;98.30;;;;;;5126134;23;20206;-80
2021/01/06 10:21:59;;;;;;;7.22;6.20;;;3.30;98.30;;;;;;5118608;23;20244;-80
2021/01/06 10:24:22;;;;;;;6.45;5.72;;;3.30;98.30;;;;;;5126064;23;20228;-79
2021/01/06 10:26:42;;;;;;;6.13;4.90;;;3.30;98.30;;;;;;5118015;23;20230;-80
2021/01/06 10:28:50;;;;;;;6.80;5.85;;;3.20;98.30;;;;;;5125847;23;20202;-80
2021/01/06 10:31:05;;;;;;;8.15;5.75;;;3.30;98.30;;;;;;5125999;23;20207;-80
2021/01/06 10:33:16;;;;;;;6.60;5.18;;;3.30;98.30;;;;;;5128082;23;20214;-80
2021/01/06 10:35:39;;;;;;;6.93;5.72;;;3.30;98.30;;;;;;5135716;23;20233;-80
2021/01/06 10:37:44;;;;;;;7.13;5.50;;;3.30;98.30;;;;;;5136241;23;21001;-80
2021/01/06 10:39:50;;;;;;;7.28;5.75;;;3.30;98.30;;;;;;5136296;23;20768;-80
2021/01/06 10:42:01;;;;;;;6.33;5.03;;;3.40;98.30;;;;;;5135512;23;20273;-79
2021/01/06 10:44:30;;;;;;;6.90;5.68;;;3.40;98.30;;;;;;5135621;23;20452;-80
2021/01/06 10:46:48;;;;;;;6.35;5.10;;;3.40;98.30;;;;;;5131382;23;20207;-80
2021/01/06 10:48:51;;;;;;;8.48;5.35;;;3.40;98.30;;;;;;5127145;23;20245;-80
2021/01/06 10:50:54;;;;;;;6.72;5.25;;;3.40;98.30;;;;;;5126705;23;20278;-80
2021/01/06 10:53:02;;;;;;;6.20;5.20;;;3.40;98.30;;;;;;5126839;23;20932;-80
2021/01/06 10:55:37;;;;;;;5.50;4.80;;;3.40;98.30;;;;;;5126572;23;20224;-81
2021/01/06 10:57:46;;;;;;;5.45;4.82;;;3.40;98.30;;;;;;5127106;23;20222;-79
2021/01/06 11:00:21;;;;;;;6.15;4.60;;;3.40;98.30;;;;;;5127574;23;20198;-81
2021/01/06 11:02:28;;;;;;;6.22;4.60;;;3.40;98.30;;;;;;5117628;23;20570;-80
2021/01/06 11:05:16;;;;;;;6.07;4.50;;;3.50;98.30;;;;;;5126996;23;20281;-81
2021/01/06 11:07:32;;;;;;;6.05;4.50;;;3.40;98.30;;;;;;5119259;23;20182;-80
2021/01/06 11:09:50;;;;;;;5.43;4.60;;;3.40;98.30;;;;;;5124711;23;20199;-80
2021/01/06 11:12:30;;;;;;;6.20;5.30;;;3.50;98.30;;;;;;5116836;23;20455;-80
2021/01/06 11:15:08;;;;;;;7.78;5.75;;;3.40;98.30;;;;;;5060296;23;21059;-80
2021/01/06 11:17:30;;;;;;;5.50;4.23;;;3.40;98.30;;;;;;5125055;23;20206;-80
2021/01/06 11:19:49;;;;;;;5.30;4.18;;;3.40;98.30;;;;;;5124091;23;20455;-80
2021/01/06 11:22:04;;;;;;;6.33;4.80;;;3.40;98.30;;;;;;5126010;23;20210;-80
2021/01/06 11:24:31;;;;;;;9.07;5.82;;;3.40;98.30;;;;;;5118587;23;20477;-80
2021/01/06 11:26:54;;;;;;;9.10;5.82;;;3.40;98.30;;;;;;5119327;23;20211;-80
2021/01/06 11:29:05;;;;;;;11.30;5.27;;;3.40;98.30;;;;;;5125362;23;20212;-80
2021/01/06 11:31:24;;;;;;;6.32;4.90;;;3.40;98.30;;;;;;5124691;23;20461;-80
2021/01/06 11:33:29;;;;;;;5.43;4.53;;;3.40;98.30;;;;;;5123994;23;20211;-79
2021/01/06 11:35:41;;;;;;;5.80;4.90;;;3.40;98.30;;;;;;5123942;23;21280;-80
2021/01/06 11:37:44;;;;;;;6.65;4.07;;;3.40;98.30;;;;;;5122510;23;20206;-80
2021/01/06 11:39:48;;;;;;;6.60;4.90;;;3.30;98.30;;;;;;5123019;23;20206;-80
2021/01/06 11:42:07;;;;;;;6.90;4.13;;;3.30;98.30;;;;;;5123046;23;20237;-80
2021/01/06 11:44:18;;;;;;;7.03;4.57;;;3.40;98.30;;;;;;5114599;23;20214;-80
2021/01/06 11:46:52;;;;;;;7.80;4.80;;;3.40;98.30;;;;;;5115773;23;20825;-80
2021/01/06 11:49:06;;;;;;;6.20;5.60;;;3.40;98.30;;;;;;5116250;23;20465;-80
2021/01/06 11:51:23;;;;;;;5.43;4.20;;;3.30;98.30;;;;;;5124656;23;20496;-80
2021/01/06 11:53:27;;;;;;;7.20;4.80;;;3.30;98.30;;;;;;5124513;23;20198;-80
2021/01/06 11:55:39;;;;;;;8.00;5.15;;;3.30;98.30;;;;;;5124412;23;20453;-80
2021/01/06 11:58:37;;;;;;;5.53;4.72;;;3.30;98.30;;;;;;5124196;23;20194;-81
2021/01/06 12:02:06;;;;;;;6.13;4.35;;;3.30;98.30;;;;;;5125404;23;20203;-80
2021/01/06 12:05:02;;;;;;;6.10;4.90;;;3.20;98.30;;;;;;4927068;24;20269;-80
2021/01/06 12:08:02;;;;;;;5.35;4.32;;;3.30;98.30;;;;;;4968933;23;20212;-80
2021/01/06 12:14:32;;;;;;;5.78;5.18;;;3.20;98.30;;;;;;4907650;24;20269;-80
2021/01/06 12:16:42;;;;;;;6.30;5.25;;;3.20;98.30;;;;;;4890928;24;20205;-80
2021/01/06 12:28:35;;;;;;;5.95;5.10;;;3.10;98.30;;;;;;4949817;23;20208;-80
2021/01/06 12:30:42;;;;;;;5.40;4.90;;;3.10;98.30;;;;;;4953059;23;20283;-80
2021/01/06 12:32:54;;;;;;;5.43;4.93;;;3.10;98.30;;;;;;4952570;24;20226;-80
2021/01/06 12:35:06;;;;;;;6.32;4.60;;;3.10;98.30;;;;;;4953381;23;20260;-80
2021/01/06 12:37:26;;;;;;;5.10;4.60;;;3.10;98.30;;;;;;4953776;24;20208;-80
2021/01/06 12:39:32;;;;;;;4.95;4.45;;;3.10;98.30;;;;;;4953688;24;20767;-80
2021/01/06 12:41:49;;;;;;;5.65;4.75;;;3.10;98.30;;;;;;4983953;23;20697;-80
2021/01/06 12:44:10;;;;;;;5.80;5.30;;;3.00;98.30;;;;;;5047960;23;20224;-80
2021/01/06 12:46:26;;;;;;;6.07;4.90;;;3.10;98.30;;;;;;5040366;23;20244;-80
2021/01/06 12:48:34;;;;;;;5.60;5.10;;;3.00;98.30;;;;;;5047573;23;20264;-79
2021/01/06 12:50:49;;;;;;;7.10;4.35;;;3.10;98.30;;;;;;5039798;23;20208;-80
2021/01/06 12:52:56;;;;;;;5.70;5.00;;;3.00;98.30;;;;;;5047839;23;20197;-80
2021/01/06 12:55:20;;;;;;;5.82;4.35;;;3.00;98.30;;;;;;5047849;23;20212;-80
2021/01/06 12:57:27;;;;;;;4.85;4.35;;;3.00;98.30;;;;;;5047476;23;20205;-79
2021/01/06 12:59:31;;;;;;;5.53;4.82;;;3.00;98.30;;;;;;5047397;23;20204;-82
2021/01/06 13:01:43;;;;;;;4.60;4.10;;;3.00;98.30;;;;;;5066926;23;20202;-80
2021/01/06 13:03:51;;;;;;;4.25;3.85;;;3.00;98.30;;;;;;5123301;23;20202;-80
2021/01/06 13:06:25;;;;;;;7.43;4.70;;;3.00;98.30;;;;;;5123772;23;20277;-81
2021/01/06 13:08:38;;;;;;;5.60;4.65;;;3.10;98.30;;;;;;5124977;23;20292;-80
2021/01/06 13:10:50;;;;;;;8.25;4.47;;;3.10;98.30;;;;;;5126190;23;20673;-81
2021/01/06 13:12:57;;;;;;;5.05;3.80;;;3.10;98.30;;;;;;5117530;23;20278;-80
2021/01/06 13:15:06;;;;;;;4.90;4.03;;;3.10;98.30;;;;;;5124162;23;20528;-81
2021/01/06 13:17:28;;;;;;;6.32;4.30;;;3.10;98.30;;;;;;5123450;23;20225;-80
2021/01/06 13:19:35;;;;;;;5.60;3.67;;;3.10;98.30;;;;;;5124171;23;20202;-80
2021/01/06 13:21:40;;;;;;;4.30;3.90;;;3.10;98.30;;;;;;5124099;23;20230;-80
2021/01/06 13:23:47;;;;;;;5.30;4.30;;;3.10;98.30;;;;;;5123003;23;20624;-80
2021/01/06 13:26:00;;;;;;;4.65;4.20;;;3.10;98.30;;;;;;5123910;23;20194;-80
2021/01/06 13:28:28;;;;;;;4.53;3.92;;;3.10;98.30;;;;;;5124795;23;20202;-80
2021/01/06 13:30:44;;;;;;;4.72;4.10;;;3.10;98.30;;;;;;5124533;23;20202;-81
2021/01/06 13:32:53;;;;;;;4.35;3.92;;;3.00;98.30;;;;;;5124454;23;20213;-80
2021/01/06 13:34:58;;;;;;;4.25;3.85;;;3.10;98.30;;;;;;5124101;23;20201;-81
2021/01/06 13:37:03;;;;;;;4.75;4.25;;;3.10;98.30;;;;;;5124656;23;20909;-80
2021/01/06 13:39:23;;;;;;;5.55;5.05;;;3.10;98.30;;;;;;5116858;23;20206;-80
2021/01/06 13:41:31;;;;;;;5.15;4.10;;;3.00;98.30;;;;;;5124799;23;20258;-80
2021/01/06 13:43:45;;;;;;;5.00;3.83;;;3.00;98.30;;;;;;5125687;23;20708;-80
2021/01/06 13:46:12;;;;;;;5.20;4.50;;;3.00;98.30;;;;;;5125657;23;20203;-81
2021/01/06 13:49:01;;;;;;;4.85;4.43;;;3.00;98.30;;;;;;5122963;23;20203;-81
2021/01/06 13:51:12;;;;;;;6.07;4.97;;;3.00;98.30;;;;;;5124130;23;20229;-80
2021/01/06 13:53:29;;;;;;;5.45;4.88;;;3.00;98.30;;;;;;5123409;23;20755;-80
2021/01/06 13:55:39;;;;;;;6.15;5.10;;;3.00;98.30;;;;;;5115339;23;20526;-80
2021/01/06 13:57:59;;;;;;;6.03;5.20;;;2.90;98.30;;;;;;5123205;23;20662;-84
2021/01/06 14:00:11;;;;;;;5.63;4.82;;;2.90;98.30;;;;;;5123557;23;20206;-81
2021/01/06 14:02:27;;;;;;;5.30;4.80;;;2.90;98.30;;;;;;5122582;23;20232;-80
2021/01/06 14:04:42;;;;;;;5.80;4.80;;;2.90;98.30;;;;;;5122911;23;20202;-81
2021/01/06 14:06:52;;;;;;;5.80;5.07;;;2.90;98.30;;;;;;5123372;23;20712;-80
2021/01/06 14:09:31;;;;;;;4.70;4.25;;;2.90;98.30;;;;;;5124098;23;20194;-80
2021/01/06 14:12:10;;;;;;;4.93;4.35;;;2.90;98.30;;;;;;5124518;23;20202;-81
2021/01/06 14:14:23;;;;;;;4.80;4.40;;;2.90;98.30;;;;;;5124020;23;20224;-80
2021/01/06 14:16:33;;;;;;;4.63;4.13;;;2.90;98.30;;;;;;5124472;23;20218;-81